sensor_id;sensor_type;location;lat;lon;timestamp;temperature;humidity
22769;DHT22;13001;51.968;5.918;2024-02-26T00:01:38;7.10;99.90
22769;DHT22;13001;51.968;5.918;2024-02-26T00:04:05;7.10;99.90
22769;DHT22;13001;51.968;5.918;2024-02-26T00:06:33;7.10;99.90
22769;DHT22;13001;51.968;5.918;2024-02-26T00:09:00;7.10;99.90
22769;DHT22;13001;51.968;5.918;2024-02-26T00:11:29;7.10;99.90
22769;DHT22;13001;51.968;5.918;2024-02-26T00:13:56;7.10;99.90
22769;DHT22;13001;51.968;5.918;2024-02-26T00:16:25;7.10;99.90
22769;DHT22;13001;51.968;5.918;2024-02-26T00:18:52;7.00;99.90
22769;DHT22;13001;51.968;5.918;2024-02-26T00:21:20;7.00;99.90
22769;DHT22;13001;51.968;5.918;2024-02-26T00:23:49;7.00;99.90
22769;DHT22;13001;51.968;5.918;2024-02-26T00:26:17;7.00;99.90
22769;DHT22;13001;51.968;5.918;2024-02-26T00:28:45;7.00;99.90
22769;DHT22;13001;51.968;5.918;2024-02-26T00:31:12;7.00;99.90
22769;DHT22;13001;51.968;5.918;2024-02-26T00:33:40;7.00;99.90
22769;DHT22;13001;51.968;5.918;2024-02-26T00:36:07;7.00;99.90
22769;DHT22;13001;51.968;5.918;2024-02-26T00:38:36;6.90;99.90
22769;DHT22;13001;51.968;5.918;2024-02-26T00:41:03;6.90;99.90
22769;DHT22;13001;51.968;5.918;2024-02-26T00:43:31;6.90;99.90
22769;DHT22;13001;51.968;5.918;2024-02-26T00:45:58;6.90;99.90
22769;DHT22;13001;51.968;5.918;2024-02-26T00:48:26;6.90;99.90
22769;DHT22;13001;51.968;5.918;2024-02-26T00:50:54;6.90;99.90
22769;DHT22;13001;51.968;5.918;2024-02-26T00:53:21;6.90;99.90
22769;DHT22;13001;51.968;5.918;2024-02-26T00:55:49;7.00;99.90
22769;DHT22;13001;51.968;5.918;2024-02-26T00:58:16;7.00;99.90
22769;DHT22;13001;51.968;5.918;2024-02-26T01:00:45;7.00;99.90
22769;DHT22;13001;51.968;5.918;2024-02-26T01:03:13;7.10;99.90
22769;DHT22;13001;51.968;5.918;2024-02-26T01:05:40;7.10;99.90
22769;DHT22;13001;51.968;5.918;2024-02-26T01:08:08;7.10;99.90
22769;DHT22;13001;51.968;5.918;2024-02-26T01:10:36;7.20;99.90
22769;DHT22;13001;51.968;5.918;2024-02-26T01:13:06;7.20;99.90
22769;DHT22;13001;51.968;5.918;2024-02-26T01:15:34;7.20;99.90
22769;DHT22;13001;51.968;5.918;2024-02-26T01:18:01;7.20;99.90
22769;DHT22;13001;51.968;5.918;2024-02-26T01:20:29;7.30;99.90
22769;DHT22;13001;51.968;5.918;2024-02-26T01:22:56;7.40;99.90
22769;DHT22;13001;51.968;5.918;2024-02-26T01:25:24;7.40;99.90
22769;DHT22;13001;51.968;5.918;2024-02-26T01:27:51;7.50;99.90
22769;DHT22;13001;51.968;5.918;2024-02-26T01:30:21;7.50;99.90
22769;DHT22;13001;51.968;5.918;2024-02-26T01:32:48;7.50;99.90
22769;DHT22;13001;51.968;5.918;2024-02-26T01:35:16;7.60;99.90
22769;DHT22;13001;51.968;5.918;2024-02-26T01:37:43;7.60;99.90
22769;DHT22;13001;51.968;5.918;2024-02-26T01:40:11;7.60;99.90
22769;DHT22;13001;51.968;5.918;2024-02-26T01:42:41;7.60;99.90
22769;DHT22;13001;51.968;5.918;2024-02-26T01:45:14;7.60;99.90
22769;DHT22;13001;51.968;5.918;2024-02-26T01:47:39;7.60;99.90
22769;DHT22;13001;51.968;5.918;2024-02-26T01:50:07;7.70;99.90
22769;DHT22;13001;51.968;5.918;2024-02-26T01:52:36;7.70;99.90
22769;DHT22;13001;51.968;5.918;2024-02-26T01:55:04;7.70;99.90
22769;DHT22;13001;51.968;5.918;2024-02-26T01:57:32;7.70;99.90
22769;DHT22;13001;51.968;5.918;2024-02-26T02:00:00;7.70;99.90
22769;DHT22;13001;51.968;5.918;2024-02-26T02:02:28;7.70;99.90
22769;DHT22;13001;51.968;5.918;2024-02-26T02:04:55;7.60;99.90
22769;DHT22;13001;51.968;5.918;2024-02-26T02:07:23;7.60;99.90
22769;DHT22;13001;51.968;5.918;2024-02-26T02:09:54;7.50;99.90
22769;DHT22;13001;51.968;5.918;2024-02-26T02:12:22;7.40;99.90
22769;DHT22;13001;51.968;5.918;2024-02-26T02:14:49;7.40;99.90
22769;DHT22;13001;51.968;5.918;2024-02-26T02:17:17;7.30;99.90
22769;DHT22;13001;51.968;5.918;2024-02-26T02:19:45;7.30;99.90
22769;DHT22;13001;51.968;5.918;2024-02-26T02:22:12;7.20;99.90
22769;DHT22;13001;51.968;5.918;2024-02-26T02:24:41;7.20;99.90
22769;DHT22;13001;51.968;5.918;2024-02-26T02:27:09;7.20;99.90
22769;DHT22;13001;51.968;5.918;2024-02-26T02:29:37;7.10;99.90
22769;DHT22;13001;51.968;5.918;2024-02-26T02:32:05;7.10;99.90
22769;DHT22;13001;51.968;5.918;2024-02-26T02:34:33;7.10;99.90
22769;DHT22;13001;51.968;5.918;2024-02-26T02:37:01;7.10;99.90
22769;DHT22;13001;51.968;5.918;2024-02-26T02:39:28;7.10;99.90
22769;DHT22;13001;51.968;5.918;2024-02-26T02:41:56;7.00;99.90
22769;DHT22;13001;51.968;5.918;2024-02-26T02:44:23;7.10;99.90
22769;DHT22;13001;51.968;5.918;2024-02-26T02:46:53;7.10;99.90
22769;DHT22;13001;51.968;5.918;2024-02-26T02:49:20;7.00;99.90
22769;DHT22;13001;51.968;5.918;2024-02-26T02:51:49;7.00;99.90
22769;DHT22;13001;51.968;5.918;2024-02-26T02:54:17;7.00;99.90
22769;DHT22;13001;51.968;5.918;2024-02-26T02:56:44;7.00;99.90
22769;DHT22;13001;51.968;5.918;2024-02-26T02:59:12;7.00;99.90
22769;DHT22;13001;51.968;5.918;2024-02-26T03:01:41;7.00;99.90
22769;DHT22;13001;51.968;5.918;2024-02-26T03:04:08;7.00;99.90
22769;DHT22;13001;51.968;5.918;2024-02-26T03:06:36;7.00;99.90
22769;DHT22;13001;51.968;5.918;2024-02-26T03:09:04;7.00;99.90
22769;DHT22;13001;51.968;5.918;2024-02-26T03:11:31;7.00;99.90
22769;DHT22;13001;51.968;5.918;2024-02-26T03:13:59;7.10;99.90
22769;DHT22;13001;51.968;5.918;2024-02-26T03:16:26;7.10;99.90
22769;DHT22;13001;51.968;5.918;2024-02-26T03:18:54;7.10;99.90
22769;DHT22;13001;51.968;5.918;2024-02-26T03:21:21;7.10;99.90
22769;DHT22;13001;51.968;5.918;2024-02-26T03:23:49;7.10;99.90
22769;DHT22;13001;51.968;5.918;2024-02-26T03:26:17;7.10;99.90
22769;DHT22;13001;51.968;5.918;2024-02-26T03:28:45;7.20;99.90
22769;DHT22;13001;51.968;5.918;2024-02-26T03:31:12;7.10;99.90
22769;DHT22;13001;51.968;5.918;2024-02-26T03:33:40;7.20;99.90
22769;DHT22;13001;51.968;5.918;2024-02-26T03:36:07;7.20;99.90
22769;DHT22;13001;51.968;5.918;2024-02-26T03:38:35;7.20;99.90
22769;DHT22;13001;51.968;5.918;2024-02-26T03:41:02;7.30;99.90
22769;DHT22;13001;51.968;5.918;2024-02-26T03:43:30;7.30;99.90
22769;DHT22;13001;51.968;5.918;2024-02-26T03:45:58;7.30;99.90
22769;DHT22;13001;51.968;5.918;2024-02-26T03:48:26;7.30;99.90
22769;DHT22;13001;51.968;5.918;2024-02-26T03:50:54;7.30;99.90
22769;DHT22;13001;51.968;5.918;2024-02-26T03:53:21;7.30;99.90
22769;DHT22;13001;51.968;5.918;2024-02-26T03:55:48;7.30;99.90
22769;DHT22;13001;51.968;5.918;2024-02-26T03:58:18;7.40;99.90
22769;DHT22;13001;51.968;5.918;2024-02-26T04:00:45;7.40;99.90
22769;DHT22;13001;51.968;5.918;2024-02-26T04:03:14;7.40;99.90
22769;DHT22;13001;51.968;5.918;2024-02-26T04:05:42;7.40;99.90
22769;DHT22;13001;51.968;5.918;2024-02-26T04:08:09;7.40;99.90
22769;DHT22;13001;51.968;5.918;2024-02-26T04:10:37;7.40;99.90
22769;DHT22;13001;51.968;5.918;2024-02-26T04:13:07;7.50;99.90
22769;DHT22;13001;51.968;5.918;2024-02-26T04:15:35;7.50;99.90
22769;DHT22;13001;51.968;5.918;2024-02-26T04:18:03;7.50;99.90
22769;DHT22;13001;51.968;5.918;2024-02-26T04:20:31;7.50;99.90
22769;DHT22;13001;51.968;5.918;2024-02-26T04:22:59;7.50;99.90
22769;DHT22;13001;51.968;5.918;2024-02-26T04:25:26;7.50;99.90
22769;DHT22;13001;51.968;5.918;2024-02-26T04:27:55;7.50;99.90
22769;DHT22;13001;51.968;5.918;2024-02-26T04:30:22;7.50;99.90
22769;DHT22;13001;51.968;5.918;2024-02-26T04:32:53;7.50;99.90
22769;DHT22;13001;51.968;5.918;2024-02-26T04:35:20;7.50;99.90
22769;DHT22;13001;51.968;5.918;2024-02-26T04:37:48;7.50;99.90
22769;DHT22;13001;51.968;5.918;2024-02-26T04:40:15;7.50;99.90
22769;DHT22;13001;51.968;5.918;2024-02-26T04:42:43;7.40;99.90
22769;DHT22;13001;51.968;5.918;2024-02-26T04:45:12;7.40;99.90
22769;DHT22;13001;51.968;5.918;2024-02-26T04:47:39;7.40;99.90
22769;DHT22;13001;51.968;5.918;2024-02-26T04:50:07;7.30;99.90
22769;DHT22;13001;51.968;5.918;2024-02-26T04:52:37;7.30;99.90
22769;DHT22;13001;51.968;5.918;2024-02-26T04:55:05;7.30;99.90
22769;DHT22;13001;51.968;5.918;2024-02-26T04:57:32;7.30;99.90
22769;DHT22;13001;51.968;5.918;2024-02-26T05:00:00;7.30;99.90
22769;DHT22;13001;51.968;5.918;2024-02-26T05:02:31;7.30;99.90
22769;DHT22;13001;51.968;5.918;2024-02-26T05:05:00;7.20;99.90
22769;DHT22;13001;51.968;5.918;2024-02-26T05:07:27;7.20;99.90
22769;DHT22;13001;51.968;5.918;2024-02-26T05:09:55;7.20;99.90
22769;DHT22;13001;51.968;5.918;2024-02-26T05:12:22;7.20;99.90
22769;DHT22;13001;51.968;5.918;2024-02-26T05:14:50;7.10;99.90
22769;DHT22;13001;51.968;5.918;2024-02-26T05:17:17;7.10;99.90
22769;DHT22;13001;51.968;5.918;2024-02-26T05:19:45;7.10;99.90
22769;DHT22;13001;51.968;5.918;2024-02-26T05:22:14;7.10;99.90
22769;DHT22;13001;51.968;5.918;2024-02-26T05:24:42;7.10;99.90
22769;DHT22;13001;51.968;5.918;2024-02-26T05:27:10;7.10;99.90
22769;DHT22;13001;51.968;5.918;2024-02-26T05:29:38;7.10;99.90
22769;DHT22;13001;51.968;5.918;2024-02-26T05:32:06;7.10;99.90
22769;DHT22;13001;51.968;5.918;2024-02-26T05:34:34;7.10;99.90
22769;DHT22;13001;51.968;5.918;2024-02-26T05:37:01;7.10;99.90
22769;DHT22;13001;51.968;5.918;2024-02-26T05:39:29;7.10;99.90
22769;DHT22;13001;51.968;5.918;2024-02-26T05:41:58;7.00;99.90
22769;DHT22;13001;51.968;5.918;2024-02-26T05:44:27;7.00;99.90
22769;DHT22;13001;51.968;5.918;2024-02-26T05:46:54;7.00;99.90
22769;DHT22;13001;51.968;5.918;2024-02-26T05:49:25;7.00;99.90
22769;DHT22;13001;51.968;5.918;2024-02-26T05:51:52;7.00;99.90
22769;DHT22;13001;51.968;5.918;2024-02-26T05:54:20;7.00;99.90
22769;DHT22;13001;51.968;5.918;2024-02-26T05:56:47;7.00;99.90
22769;DHT22;13001;51.968;5.918;2024-02-26T05:59:15;7.00;99.90
22769;DHT22;13001;51.968;5.918;2024-02-26T06:01:44;6.90;99.90
22769;DHT22;13001;51.968;5.918;2024-02-26T06:04:11;6.90;99.90
22769;DHT22;13001;51.968;5.918;2024-02-26T06:06:39;6.90;99.90
22769;DHT22;13001;51.968;5.918;2024-02-26T06:09:07;6.90;99.90
22769;DHT22;13001;51.968;5.918;2024-02-26T06:11:34;6.90;99.90
22769;DHT22;13001;51.968;5.918;2024-02-26T06:14:02;6.90;99.90
22769;DHT22;13001;51.968;5.918;2024-02-26T06:16:29;6.90;99.90
22769;DHT22;13001;51.968;5.918;2024-02-26T06:18:56;6.90;99.90
22769;DHT22;13001;51.968;5.918;2024-02-26T06:21:24;6.90;99.90
22769;DHT22;13001;51.968;5.918;2024-02-26T06:23:52;6.90;99.90
22769;DHT22;13001;51.968;5.918;2024-02-26T06:26:20;6.90;99.90
22769;DHT22;13001;51.968;5.918;2024-02-26T06:28:47;6.90;99.90
22769;DHT22;13001;51.968;5.918;2024-02-26T06:31:15;6.90;99.90
22769;DHT22;13001;51.968;5.918;2024-02-26T06:33:45;6.80;99.90
22769;DHT22;13001;51.968;5.918;2024-02-26T06:36:12;6.90;99.90
22769;DHT22;13001;51.968;5.918;2024-02-26T06:38:41;6.90;99.90
22769;DHT22;13001;51.968;5.918;2024-02-26T06:41:09;6.90;99.90
22769;DHT22;13001;51.968;5.918;2024-02-26T06:43:38;6.90;99.90
22769;DHT22;13001;51.968;5.918;2024-02-26T06:46:06;6.90;99.90
22769;DHT22;13001;51.968;5.918;2024-02-26T06:48:34;6.90;99.90
22769;DHT22;13001;51.968;5.918;2024-02-26T06:51:04;6.90;99.90
22769;DHT22;13001;51.968;5.918;2024-02-26T06:53:35;6.80;99.90
22769;DHT22;13001;51.968;5.918;2024-02-26T06:56:03;6.80;99.90
22769;DHT22;13001;51.968;5.918;2024-02-26T06:58:30;6.80;99.90
22769;DHT22;13001;51.968;5.918;2024-02-26T07:00:59;6.80;99.90
22769;DHT22;13001;51.968;5.918;2024-02-26T07:03:26;6.80;99.90
22769;DHT22;13001;51.968;5.918;2024-02-26T07:05:54;6.80;99.90
22769;DHT22;13001;51.968;5.918;2024-02-26T07:08:22;6.80;99.90
22769;DHT22;13001;51.968;5.918;2024-02-26T07:10:49;6.80;99.90
22769;DHT22;13001;51.968;5.918;2024-02-26T07:13:17;6.80;99.90
22769;DHT22;13001;51.968;5.918;2024-02-26T07:15:44;6.80;99.90
22769;DHT22;13001;51.968;5.918;2024-02-26T07:18:12;6.80;99.90
22769;DHT22;13001;51.968;5.918;2024-02-26T07:20:40;6.80;99.90
22769;DHT22;13001;51.968;5.918;2024-02-26T07:23:07;6.80;99.90
22769;DHT22;13001;51.968;5.918;2024-02-26T07:25:35;6.80;99.90
22769;DHT22;13001;51.968;5.918;2024-02-26T07:28:02;6.80;99.90
22769;DHT22;13001;51.968;5.918;2024-02-26T07:30:30;6.80;99.90
22769;DHT22;13001;51.968;5.918;2024-02-26T07:32:57;6.80;99.90
22769;DHT22;13001;51.968;5.918;2024-02-26T07:35:25;6.80;99.90
22769;DHT22;13001;51.968;5.918;2024-02-26T07:37:54;6.80;99.90
22769;DHT22;13001;51.968;5.918;2024-02-26T07:40:21;6.80;99.90
22769;DHT22;13001;51.968;5.918;2024-02-26T07:42:49;6.80;99.90
22769;DHT22;13001;51.968;5.918;2024-02-26T07:45:16;6.80;99.90
22769;DHT22;13001;51.968;5.918;2024-02-26T07:47:46;6.80;99.90
22769;DHT22;13001;51.968;5.918;2024-02-26T07:50:14;6.80;99.90
22769;DHT22;13001;51.968;5.918;2024-02-26T07:52:42;6.80;99.90
22769;DHT22;13001;51.968;5.918;2024-02-26T07:55:09;6.80;99.90
22769;DHT22;13001;51.968;5.918;2024-02-26T07:57:37;6.80;99.90
22769;DHT22;13001;51.968;5.918;2024-02-26T08:00:05;6.80;99.90
22769;DHT22;13001;51.968;5.918;2024-02-26T08:02:36;6.80;99.90
22769;DHT22;13001;51.968;5.918;2024-02-26T08:05:04;6.80;99.90
22769;DHT22;13001;51.968;5.918;2024-02-26T08:07:32;6.80;99.90
22769;DHT22;13001;51.968;5.918;2024-02-26T08:09:59;6.90;99.90
22769;DHT22;13001;51.968;5.918;2024-02-26T08:12:27;6.90;99.90
22769;DHT22;13001;51.968;5.918;2024-02-26T08:14:54;6.90;99.90
22769;DHT22;13001;51.968;5.918;2024-02-26T08:17:22;6.90;99.90
22769;DHT22;13001;51.968;5.918;2024-02-26T08:19:50;6.90;99.90
22769;DHT22;13001;51.968;5.918;2024-02-26T08:22:26;6.90;99.90
22769;DHT22;13001;51.968;5.918;2024-02-26T08:24:54;6.90;99.90
22769;DHT22;13001;51.968;5.918;2024-02-26T08:27:21;6.80;99.90
22769;DHT22;13001;51.968;5.918;2024-02-26T08:29:49;6.80;99.90
22769;DHT22;13001;51.968;5.918;2024-02-26T08:32:16;6.90;99.90
22769;DHT22;13001;51.968;5.918;2024-02-26T08:34:44;6.80;99.90
22769;DHT22;13001;51.968;5.918;2024-02-26T08:37:11;6.80;99.90
22769;DHT22;13001;51.968;5.918;2024-02-26T08:39:39;6.80;99.90
22769;DHT22;13001;51.968;5.918;2024-02-26T08:42:06;6.80;99.90
22769;DHT22;13001;51.968;5.918;2024-02-26T08:44:34;6.80;99.90
22769;DHT22;13001;51.968;5.918;2024-02-26T08:47:01;6.90;99.90
22769;DHT22;13001;51.968;5.918;2024-02-26T08:49:29;6.90;99.90
22769;DHT22;13001;51.968;5.918;2024-02-26T08:51:56;6.90;99.90
22769;DHT22;13001;51.968;5.918;2024-02-26T08:54:24;6.90;99.90
22769;DHT22;13001;51.968;5.918;2024-02-26T08:56:51;6.90;99.90
22769;DHT22;13001;51.968;5.918;2024-02-26T08:59:19;6.90;99.90
22769;DHT22;13001;51.968;5.918;2024-02-26T09:01:48;6.90;99.90
22769;DHT22;13001;51.968;5.918;2024-02-26T09:04:15;7.00;99.90
22769;DHT22;13001;51.968;5.918;2024-02-26T09:06:44;7.00;99.90
22769;DHT22;13001;51.968;5.918;2024-02-26T09:09:11;7.00;99.90
22769;DHT22;13001;51.968;5.918;2024-02-26T09:11:39;7.00;99.90
22769;DHT22;13001;51.968;5.918;2024-02-26T09:14:06;7.00;99.90
22769;DHT22;13001;51.968;5.918;2024-02-26T09:16:35;7.00;99.90
22769;DHT22;13001;51.968;5.918;2024-02-26T09:19:02;7.10;99.90
22769;DHT22;13001;51.968;5.918;2024-02-26T09:21:30;7.10;99.90
22769;DHT22;13001;51.968;5.918;2024-02-26T09:23:57;7.10;99.90
22769;DHT22;13001;51.968;5.918;2024-02-26T09:26:25;7.10;99.90
22769;DHT22;13001;51.968;5.918;2024-02-26T09:28:52;7.10;99.90
22769;DHT22;13001;51.968;5.918;2024-02-26T09:31:20;7.10;99.90
22769;DHT22;13001;51.968;5.918;2024-02-26T09:33:47;7.10;99.90
22769;DHT22;13001;51.968;5.918;2024-02-26T09:36:15;7.20;99.90
22769;DHT22;13001;51.968;5.918;2024-02-26T09:38:42;7.20;99.90
22769;DHT22;13001;51.968;5.918;2024-02-26T09:41:14;7.20;99.90
22769;DHT22;13001;51.968;5.918;2024-02-26T09:43:44;7.20;99.90
22769;DHT22;13001;51.968;5.918;2024-02-26T09:46:15;7.20;99.90
22769;DHT22;13001;51.968;5.918;2024-02-26T09:48:44;7.20;99.90
22769;DHT22;13001;51.968;5.918;2024-02-26T09:51:12;7.20;99.90
22769;DHT22;13001;51.968;5.918;2024-02-26T09:53:43;7.20;99.90
22769;DHT22;13001;51.968;5.918;2024-02-26T09:56:12;7.20;99.90
22769;DHT22;13001;51.968;5.918;2024-02-26T09:58:41;7.20;99.90
22769;DHT22;13001;51.968;5.918;2024-02-26T10:01:11;7.30;99.90
22769;DHT22;13001;51.968;5.918;2024-02-26T10:03:41;7.30;99.90
22769;DHT22;13001;51.968;5.918;2024-02-26T10:06:11;7.30;99.90
22769;DHT22;13001;51.968;5.918;2024-02-26T10:08:42;7.30;99.90
22769;DHT22;13001;51.968;5.918;2024-02-26T10:11:10;7.30;99.90
22769;DHT22;13001;51.968;5.918;2024-02-26T10:13:38;7.30;99.90
22769;DHT22;13001;51.968;5.918;2024-02-26T10:16:06;7.30;99.90
22769;DHT22;13001;51.968;5.918;2024-02-26T10:18:50;7.20;99.90
22769;DHT22;13001;51.968;5.918;2024-02-26T10:21:23;7.20;99.90
22769;DHT22;13001;51.968;5.918;2024-02-26T10:23:48;7.20;99.90
22769;DHT22;13001;51.968;5.918;2024-02-26T10:26:18;7.20;99.90
22769;DHT22;13001;51.968;5.918;2024-02-26T10:28:46;7.30;99.90
22769;DHT22;13001;51.968;5.918;2024-02-26T10:31:14;7.30;99.90
22769;DHT22;13001;51.968;5.918;2024-02-26T10:33:43;7.30;99.90
22769;DHT22;13001;51.968;5.918;2024-02-26T10:36:11;7.30;99.90
22769;DHT22;13001;51.968;5.918;2024-02-26T10:38:38;7.30;99.90
22769;DHT22;13001;51.968;5.918;2024-02-26T10:41:13;7.30;99.90
22769;DHT22;13001;51.968;5.918;2024-02-26T10:43:39;7.30;99.90
22769;DHT22;13001;51.968;5.918;2024-02-26T10:46:08;7.30;99.90
22769;DHT22;13001;51.968;5.918;2024-02-26T10:48:37;7.40;99.90
22769;DHT22;13001;51.968;5.918;2024-02-26T10:51:04;7.40;99.90
22769;DHT22;13001;51.968;5.918;2024-02-26T10:53:33;7.40;99.90
22769;DHT22;13001;51.968;5.918;2024-02-26T10:56:04;7.40;99.90
22769;DHT22;13001;51.968;5.918;2024-02-26T10:58:32;7.50;99.90
22769;DHT22;13001;51.968;5.918;2024-02-26T11:01:00;7.50;99.90
22769;DHT22;13001;51.968;5.918;2024-02-26T11:03:28;7.50;99.90
22769;DHT22;13001;51.968;5.918;2024-02-26T11:05:59;7.40;99.90
22769;DHT22;13001;51.968;5.918;2024-02-26T11:08:28;7.40;99.90
22769;DHT22;13001;51.968;5.918;2024-02-26T11:10:57;7.40;99.90
22769;DHT22;13001;51.968;5.918;2024-02-26T11:13:27;7.40;99.90
22769;DHT22;13001;51.968;5.918;2024-02-26T11:16:00;7.40;99.90
22769;DHT22;13001;51.968;5.918;2024-02-26T11:18:31;7.30;99.90
22769;DHT22;13001;51.968;5.918;2024-02-26T11:21:00;7.40;99.90
22769;DHT22;13001;51.968;5.918;2024-02-26T11:23:28;7.40;99.90
22769;DHT22;13001;51.968;5.918;2024-02-26T11:25:57;7.30;99.90
22769;DHT22;13001;51.968;5.918;2024-02-26T11:28:27;7.30;99.90
22769;DHT22;13001;51.968;5.918;2024-02-26T11:30:57;7.30;99.90
22769;DHT22;13001;51.968;5.918;2024-02-26T11:33:26;7.30;99.90
22769;DHT22;13001;51.968;5.918;2024-02-26T11:35:56;7.40;99.90
22769;DHT22;13001;51.968;5.918;2024-02-26T11:38:26;7.40;99.90
22769;DHT22;13001;51.968;5.918;2024-02-26T11:40:54;7.40;99.90
22769;DHT22;13001;51.968;5.918;2024-02-26T11:43:50;7.40;99.90
22769;DHT22;13001;51.968;5.918;2024-02-26T11:46:33;7.50;99.90
22769;DHT22;13001;51.968;5.918;2024-02-26T11:51:57;7.50;99.90
22769;DHT22;13001;51.968;5.918;2024-02-26T11:54:50;7.50;99.90
22769;DHT22;13001;51.968;5.918;2024-02-26T12:00:11;7.50;99.90
22769;DHT22;13001;51.968;5.918;2024-02-26T12:05:15;7.50;99.90
22769;DHT22;13001;51.968;5.918;2024-02-26T12:07:47;7.50;99.90
22769;DHT22;13001;51.968;5.918;2024-02-26T12:10:26;7.50;99.90
22769;DHT22;13001;51.968;5.918;2024-02-26T12:12:59;7.50;99.90
22769;DHT22;13001;51.968;5.918;2024-02-26T12:15:33;7.50;99.90
22769;DHT22;13001;51.968;5.918;2024-02-26T12:18:06;7.50;99.90
22769;DHT22;13001;51.968;5.918;2024-02-26T12:20:37;7.50;99.90
22769;DHT22;13001;51.968;5.918;2024-02-26T12:23:05;7.50;99.90
22769;DHT22;13001;51.968;5.918;2024-02-26T12:25:33;7.50;99.90
22769;DHT22;13001;51.968;5.918;2024-02-26T12:28:01;7.60;99.90
22769;DHT22;13001;51.968;5.918;2024-02-26T12:30:48;7.60;99.90
22769;DHT22;13001;51.968;5.918;2024-02-26T12:33:16;7.60;99.90
22769;DHT22;13001;51.968;5.918;2024-02-26T12:35:45;7.70;99.90
22769;DHT22;13001;51.968;5.918;2024-02-26T12:38:17;7.70;99.90
22769;DHT22;13001;51.968;5.918;2024-02-26T12:40:45;7.70;99.90
22769;DHT22;13001;51.968;5.918;2024-02-26T12:43:14;7.70;99.90
22769;DHT22;13001;51.968;5.918;2024-02-26T12:45:43;7.70;99.90
22769;DHT22;13001;51.968;5.918;2024-02-26T12:48:12;7.80;99.90
22769;DHT22;13001;51.968;5.918;2024-02-26T12:50:44;7.80;99.90
22769;DHT22;13001;51.968;5.918;2024-02-26T12:53:09;7.80;99.90
22769;DHT22;13001;51.968;5.918;2024-02-26T12:55:38;7.80;99.90
22769;DHT22;13001;51.968;5.918;2024-02-26T12:58:07;7.80;99.90
22769;DHT22;13001;51.968;5.918;2024-02-26T13:00:35;7.80;99.90
22769;DHT22;13001;51.968;5.918;2024-02-26T13:03:03;7.80;99.90
22769;DHT22;13001;51.968;5.918;2024-02-26T13:05:32;7.90;99.90
22769;DHT22;13001;51.968;5.918;2024-02-26T13:08:00;7.90;99.90
22769;DHT22;13001;51.968;5.918;2024-02-26T13:10:28;7.90;99.90
22769;DHT22;13001;51.968;5.918;2024-02-26T13:12:56;7.90;99.90
22769;DHT22;13001;51.968;5.918;2024-02-26T13:15:24;7.90;99.90
22769;DHT22;13001;51.968;5.918;2024-02-26T13:17:51;7.90;99.90
22769;DHT22;13001;51.968;5.918;2024-02-26T13:20:27;8.00;99.90
22769;DHT22;13001;51.968;5.918;2024-02-26T13:23:05;8.00;99.90
22769;DHT22;13001;51.968;5.918;2024-02-26T13:25:34;8.00;99.90
22769;DHT22;13001;51.968;5.918;2024-02-26T13:28:16;8.00;99.90
22769;DHT22;13001;51.968;5.918;2024-02-26T13:30:54;8.00;99.90
22769;DHT22;13001;51.968;5.918;2024-02-26T13:33:27;8.00;99.90
22769;DHT22;13001;51.968;5.918;2024-02-26T13:35:56;8.00;99.90
22769;DHT22;13001;51.968;5.918;2024-02-26T13:38:25;8.00;99.90
22769;DHT22;13001;51.968;5.918;2024-02-26T13:40:52;8.00;99.90
22769;DHT22;13001;51.968;5.918;2024-02-26T13:43:20;8.10;99.90
22769;DHT22;13001;51.968;5.918;2024-02-26T13:45:48;8.10;99.90
22769;DHT22;13001;51.968;5.918;2024-02-26T13:48:15;8.10;99.90
22769;DHT22;13001;51.968;5.918;2024-02-26T13:50:43;8.10;99.90
22769;DHT22;13001;51.968;5.918;2024-02-26T13:53:13;8.10;99.90
22769;DHT22;13001;51.968;5.918;2024-02-26T13:55:41;8.10;99.90
22769;DHT22;13001;51.968;5.918;2024-02-26T13:58:12;8.20;99.90
22769;DHT22;13001;51.968;5.918;2024-02-26T14:00:40;8.20;99.90
22769;DHT22;13001;51.968;5.918;2024-02-26T14:03:09;8.20;99.90
22769;DHT22;13001;51.968;5.918;2024-02-26T14:05:37;8.20;99.90
22769;DHT22;13001;51.968;5.918;2024-02-26T14:08:06;8.30;99.90
22769;DHT22;13001;51.968;5.918;2024-02-26T14:10:34;8.30;99.90
22769;DHT22;13001;51.968;5.918;2024-02-26T14:13:02;8.30;99.90
22769;DHT22;13001;51.968;5.918;2024-02-26T14:15:29;8.30;99.90
22769;DHT22;13001;51.968;5.918;2024-02-26T14:17:57;8.30;99.90
22769;DHT22;13001;51.968;5.918;2024-02-26T14:20:25;8.30;99.90
22769;DHT22;13001;51.968;5.918;2024-02-26T14:22:53;8.40;99.90
22769;DHT22;13001;51.968;5.918;2024-02-26T14:25:23;8.40;99.90
22769;DHT22;13001;51.968;5.918;2024-02-26T14:27:51;8.40;99.90
22769;DHT22;13001;51.968;5.918;2024-02-26T14:30:18;8.40;99.90
22769;DHT22;13001;51.968;5.918;2024-02-26T14:32:46;8.40;99.90
22769;DHT22;13001;51.968;5.918;2024-02-26T14:35:13;8.40;99.90
22769;DHT22;13001;51.968;5.918;2024-02-26T14:37:41;8.30;99.90
22769;DHT22;13001;51.968;5.918;2024-02-26T14:40:10;8.30;99.90
22769;DHT22;13001;51.968;5.918;2024-02-26T14:42:38;8.30;99.90
22769;DHT22;13001;51.968;5.918;2024-02-26T14:45:07;8.30;99.90
22769;DHT22;13001;51.968;5.918;2024-02-26T14:47:36;8.30;99.90
22769;DHT22;13001;51.968;5.918;2024-02-26T14:50:04;8.20;99.90
22769;DHT22;13001;51.968;5.918;2024-02-26T14:52:32;8.20;99.90
22769;DHT22;13001;51.968;5.918;2024-02-26T14:54:59;8.20;99.90
22769;DHT22;13001;51.968;5.918;2024-02-26T14:57:27;8.20;99.90
22769;DHT22;13001;51.968;5.918;2024-02-26T14:59:54;8.10;99.90
22769;DHT22;13001;51.968;5.918;2024-02-26T15:02:22;8.10;99.90
22769;DHT22;13001;51.968;5.918;2024-02-26T15:04:49;8.10;99.90
22769;DHT22;13001;51.968;5.918;2024-02-26T15:07:17;8.00;99.90
22769;DHT22;13001;51.968;5.918;2024-02-26T15:09:46;8.00;99.90
22769;DHT22;13001;51.968;5.918;2024-02-26T15:12:13;8.00;99.90
22769;DHT22;13001;51.968;5.918;2024-02-26T15:14:41;8.00;99.90
22769;DHT22;13001;51.968;5.918;2024-02-26T15:17:09;8.00;99.90
22769;DHT22;13001;51.968;5.918;2024-02-26T15:19:38;8.00;99.90
22769;DHT22;13001;51.968;5.918;2024-02-26T15:22:06;8.00;99.90
22769;DHT22;13001;51.968;5.918;2024-02-26T15:24:34;8.00;99.90
22769;DHT22;13001;51.968;5.918;2024-02-26T15:27:01;8.00;99.90
22769;DHT22;13001;51.968;5.918;2024-02-26T15:29:31;8.00;99.90
22769;DHT22;13001;51.968;5.918;2024-02-26T15:32:00;7.90;99.90
22769;DHT22;13001;51.968;5.918;2024-02-26T15:34:28;7.90;99.90
22769;DHT22;13001;51.968;5.918;2024-02-26T15:36:56;7.90;99.90
22769;DHT22;13001;51.968;5.918;2024-02-26T15:39:23;7.90;99.90
22769;DHT22;13001;51.968;5.918;2024-02-26T15:41:51;7.90;99.90
22769;DHT22;13001;51.968;5.918;2024-02-26T15:44:20;7.80;99.90
22769;DHT22;13001;51.968;5.918;2024-02-26T15:46:47;7.80;99.90
22769;DHT22;13001;51.968;5.918;2024-02-26T15:49:15;7.80;99.90
22769;DHT22;13001;51.968;5.918;2024-02-26T15:51:42;7.80;99.90
22769;DHT22;13001;51.968;5.918;2024-02-26T15:54:10;7.80;99.90
22769;DHT22;13001;51.968;5.918;2024-02-26T15:56:37;7.80;99.90
22769;DHT22;13001;51.968;5.918;2024-02-26T15:59:05;7.80;99.90
22769;DHT22;13001;51.968;5.918;2024-02-26T16:01:34;7.80;99.90